sensor_id;sensor_type;location;lat;lon;timestamp;P1;durP1;ratioP1;P2;durP2;ratioP2
11646;SDS011;5880;52.342;9.662;2023-04-03T00:00:27;3.30;;;1.30;;
11646;SDS011;5880;52.342;9.662;2023-04-03T00:02:54;3.00;;;1.60;;
11646;SDS011;5880;52.342;9.662;2023-04-03T00:05:19;2.67;;;1.30;;
11646;SDS011;5880;52.342;9.662;2023-04-03T00:07:45;3.23;;;1.37;;
11646;SDS011;5880;52.342;9.662;2023-04-03T00:10:11;3.63;;;1.30;;
11646;SDS011;5880;52.342;9.662;2023-04-03T00:12:38;2.93;;;1.17;;
11646;SDS011;5880;52.342;9.662;2023-04-03T00:15:04;3.80;;;1.33;;
11646;SDS011;5880;52.342;9.662;2023-04-03T00:17:30;2.27;;;1.17;;
11646;SDS011;5880;52.342;9.662;2023-04-03T00:19:56;1.80;;;1.07;;
11646;SDS011;5880;52.342;9.662;2023-04-03T00:22:21;2.17;;;1.00;;
11646;SDS011;5880;52.342;9.662;2023-04-03T00:24:48;3.50;;;1.10;;
11646;SDS011;5880;52.342;9.662;2023-04-03T00:27:14;1.37;;;1.17;;
11646;SDS011;5880;52.342;9.662;2023-04-03T00:29:40;2.50;;;1.20;;
11646;SDS011;5880;52.342;9.662;2023-04-03T00:32:06;3.53;;;1.20;;
11646;SDS011;5880;52.342;9.662;2023-04-03T00:34:32;3.17;;;1.30;;
11646;SDS011;5880;52.342;9.662;2023-04-03T00:36:57;2.77;;;1.20;;
11646;SDS011;5880;52.342;9.662;2023-04-03T00:39:23;2.97;;;1.20;;
11646;SDS011;5880;52.342;9.662;2023-04-03T00:41:49;2.43;;;1.03;;
11646;SDS011;5880;52.342;9.662;2023-04-03T00:47:08;2.83;;;1.20;;
11646;SDS011;5880;52.342;9.662;2023-04-03T00:49:38;3.13;;;1.13;;
11646;SDS011;5880;52.342;9.662;2023-04-03T00:52:05;2.60;;;0.90;;
11646;SDS011;5880;52.342;9.662;2023-04-03T00:54:37;2.70;;;1.20;;
11646;SDS011;5880;52.342;9.662;2023-04-03T00:57:05;1.40;;;0.97;;
11646;SDS011;5880;52.342;9.662;2023-04-03T00:59:33;2.50;;;1.03;;
11646;SDS011;5880;52.342;9.662;2023-04-03T01:02:06;2.77;;;1.00;;
11646;SDS011;5880;52.342;9.662;2023-04-03T01:04:33;1.87;;;0.97;;
11646;SDS011;5880;52.342;9.662;2023-04-03T01:07:06;3.77;;;1.17;;
11646;SDS011;5880;52.342;9.662;2023-04-03T01:09:40;3.40;;;1.20;;
11646;SDS011;5880;52.342;9.662;2023-04-03T01:12:18;3.47;;;1.20;;
11646;SDS011;5880;52.342;9.662;2023-04-03T01:14:50;2.93;;;1.40;;
11646;SDS011;5880;52.342;9.662;2023-04-03T01:26:37;1.83;;;1.10;;
11646;SDS011;5880;52.342;9.662;2023-04-03T01:29:03;1.77;;;1.30;;
11646;SDS011;5880;52.342;9.662;2023-04-03T01:34:13;3.03;;;1.27;;
11646;SDS011;5880;52.342;9.662;2023-04-03T01:36:39;1.80;;;1.20;;
11646;SDS011;5880;52.342;9.662;2023-04-03T01:39:05;3.03;;;1.50;;
11646;SDS011;5880;52.342;9.662;2023-04-03T01:41:31;3.50;;;1.27;;
11646;SDS011;5880;52.342;9.662;2023-04-03T01:43:57;3.83;;;1.47;;
11646;SDS011;5880;52.342;9.662;2023-04-03T01:46:23;3.07;;;1.33;;
11646;SDS011;5880;52.342;9.662;2023-04-03T01:48:49;3.63;;;1.30;;
11646;SDS011;5880;52.342;9.662;2023-04-03T01:51:15;1.67;;;1.10;;
11646;SDS011;5880;52.342;9.662;2023-04-03T01:53:41;2.83;;;1.33;;
11646;SDS011;5880;52.342;9.662;2023-04-03T01:56:07;2.70;;;1.30;;
11646;SDS011;5880;52.342;9.662;2023-04-03T01:58:34;1.73;;;1.10;;
11646;SDS011;5880;52.342;9.662;2023-04-03T02:00:59;3.47;;;1.53;;
11646;SDS011;5880;52.342;9.662;2023-04-03T02:03:26;2.03;;;1.17;;
11646;SDS011;5880;52.342;9.662;2023-04-03T02:05:52;2.37;;;1.43;;
11646;SDS011;5880;52.342;9.662;2023-04-03T02:08:17;2.90;;;1.20;;
11646;SDS011;5880;52.342;9.662;2023-04-03T02:10:44;2.67;;;1.03;;
11646;SDS011;5880;52.342;9.662;2023-04-03T02:13:12;2.17;;;1.20;;
11646;SDS011;5880;52.342;9.662;2023-04-03T02:15:38;2.90;;;1.13;;
11646;SDS011;5880;52.342;9.662;2023-04-03T02:18:04;5.17;;;2.30;;
11646;SDS011;5880;52.342;9.662;2023-04-03T02:20:31;1.93;;;1.10;;
11646;SDS011;5880;52.342;9.662;2023-04-03T02:22:57;2.83;;;1.10;;
11646;SDS011;5880;52.342;9.662;2023-04-03T02:25:24;4.20;;;1.40;;
11646;SDS011;5880;52.342;9.662;2023-04-03T02:27:49;2.40;;;1.20;;
11646;SDS011;5880;52.342;9.662;2023-04-03T02:30:15;3.33;;;1.23;;
11646;SDS011;5880;52.342;9.662;2023-04-03T02:32:41;2.83;;;1.10;;
11646;SDS011;5880;52.342;9.662;2023-04-03T02:35:08;3.40;;;1.23;;
11646;SDS011;5880;52.342;9.662;2023-04-03T02:37:35;2.90;;;1.20;;
11646;SDS011;5880;52.342;9.662;2023-04-03T02:40:01;4.10;;;1.20;;
11646;SDS011;5880;52.342;9.662;2023-04-03T02:42:28;1.70;;;1.00;;
11646;SDS011;5880;52.342;9.662;2023-04-03T02:44:54;2.33;;;1.00;;
11646;SDS011;5880;52.342;9.662;2023-04-03T02:47:20;2.77;;;1.20;;
11646;SDS011;5880;52.342;9.662;2023-04-03T02:49:46;3.20;;;1.33;;
11646;SDS011;5880;52.342;9.662;2023-04-03T02:52:12;4.03;;;1.33;;
11646;SDS011;5880;52.342;9.662;2023-04-03T02:54:39;2.00;;;1.00;;
11646;SDS011;5880;52.342;9.662;2023-04-03T02:57:05;3.10;;;1.13;;
11646;SDS011;5880;52.342;9.662;2023-04-03T02:59:33;3.03;;;1.03;;
11646;SDS011;5880;52.342;9.662;2023-04-03T03:02:09;1.60;;;1.00;;
11646;SDS011;5880;52.342;9.662;2023-04-03T03:04:35;2.80;;;1.20;;
11646;SDS011;5880;52.342;9.662;2023-04-03T03:07:01;3.30;;;1.27;;
11646;SDS011;5880;52.342;9.662;2023-04-03T03:09:28;2.63;;;1.20;;
11646;SDS011;5880;52.342;9.662;2023-04-03T03:11:54;2.10;;;1.07;;
11646;SDS011;5880;52.342;9.662;2023-04-03T03:14:21;2.27;;;1.23;;
11646;SDS011;5880;52.342;9.662;2023-04-03T03:16:47;1.83;;;1.00;;
11646;SDS011;5880;52.342;9.662;2023-04-03T03:19:13;1.53;;;1.00;;
11646;SDS011;5880;52.342;9.662;2023-04-03T03:21:39;2.53;;;1.50;;
11646;SDS011;5880;52.342;9.662;2023-04-03T03:24:05;2.83;;;2.00;;
11646;SDS011;5880;52.342;9.662;2023-04-03T03:26:31;12.13;;;8.07;;
11646;SDS011;5880;52.342;9.662;2023-04-03T03:28:57;12.17;;;8.07;;
11646;SDS011;5880;52.342;9.662;2023-04-03T03:31:22;12.97;;;8.20;;
11646;SDS011;5880;52.342;9.662;2023-04-03T03:33:48;14.17;;;9.17;;
11646;SDS011;5880;52.342;9.662;2023-04-03T03:36:14;14.80;;;9.17;;
11646;SDS011;5880;52.342;9.662;2023-04-03T03:38:40;12.40;;;8.20;;
11646;SDS011;5880;52.342;9.662;2023-04-03T03:41:06;8.70;;;5.57;;
11646;SDS011;5880;52.342;9.662;2023-04-03T03:43:31;8.40;;;5.57;;
11646;SDS011;5880;52.342;9.662;2023-04-03T03:45:57;6.63;;;3.90;;
11646;SDS011;5880;52.342;9.662;2023-04-03T03:48:23;4.47;;;2.40;;
11646;SDS011;5880;52.342;9.662;2023-04-03T03:50:48;4.60;;;2.43;;
11646;SDS011;5880;52.342;9.662;2023-04-03T03:53:15;4.30;;;2.00;;
11646;SDS011;5880;52.342;9.662;2023-04-03T03:55:41;4.27;;;1.93;;
11646;SDS011;5880;52.342;9.662;2023-04-03T03:58:06;4.50;;;1.87;;
11646;SDS011;5880;52.342;9.662;2023-04-03T04:00:32;3.83;;;2.00;;
11646;SDS011;5880;52.342;9.662;2023-04-03T04:02:58;2.80;;;1.70;;
11646;SDS011;5880;52.342;9.662;2023-04-03T04:05:24;3.07;;;1.47;;
11646;SDS011;5880;52.342;9.662;2023-04-03T04:07:49;2.17;;;1.27;;
11646;SDS011;5880;52.342;9.662;2023-04-03T04:10:15;4.13;;;1.37;;
11646;SDS011;5880;52.342;9.662;2023-04-03T04:12:41;2.93;;;1.17;;
11646;SDS011;5880;52.342;9.662;2023-04-03T04:15:07;1.60;;;1.20;;
11646;SDS011;5880;52.342;9.662;2023-04-03T04:17:34;3.23;;;1.30;;
11646;SDS011;5880;52.342;9.662;2023-04-03T04:20:03;1.77;;;1.20;;
11646;SDS011;5880;52.342;9.662;2023-04-03T04:22:30;2.37;;;1.27;;
11646;SDS011;5880;52.342;9.662;2023-04-03T04:24:55;2.53;;;1.23;;
11646;SDS011;5880;52.342;9.662;2023-04-03T04:27:21;1.83;;;1.20;;
11646;SDS011;5880;52.342;9.662;2023-04-03T04:29:46;2.53;;;1.00;;
11646;SDS011;5880;52.342;9.662;2023-04-03T04:32:12;1.47;;;0.90;;
11646;SDS011;5880;52.342;9.662;2023-04-03T04:34:38;2.70;;;1.13;;
11646;SDS011;5880;52.342;9.662;2023-04-03T04:37:03;2.30;;;1.13;;
11646;SDS011;5880;52.342;9.662;2023-04-03T04:39:30;1.67;;;1.00;;
11646;SDS011;5880;52.342;9.662;2023-04-03T04:41:56;2.67;;;1.30;;
11646;SDS011;5880;52.342;9.662;2023-04-03T04:44:21;1.97;;;1.20;;
11646;SDS011;5880;52.342;9.662;2023-04-03T04:46:47;1.97;;;1.17;;
11646;SDS011;5880;52.342;9.662;2023-04-03T04:49:13;2.47;;;1.67;;
11646;SDS011;5880;52.342;9.662;2023-04-03T04:51:38;3.30;;;1.80;;
11646;SDS011;5880;52.342;9.662;2023-04-03T04:54:04;5.73;;;2.30;;
11646;SDS011;5880;52.342;9.662;2023-04-03T04:56:29;3.30;;;1.90;;
11646;SDS011;5880;52.342;9.662;2023-04-03T04:58:56;2.97;;;1.70;;
11646;SDS011;5880;52.342;9.662;2023-04-03T05:01:21;2.73;;;1.87;;
11646;SDS011;5880;52.342;9.662;2023-04-03T05:03:47;4.07;;;2.00;;
11646;SDS011;5880;52.342;9.662;2023-04-03T05:06:13;4.33;;;2.00;;
11646;SDS011;5880;52.342;9.662;2023-04-03T05:08:38;4.40;;;3.33;;
11646;SDS011;5880;52.342;9.662;2023-04-03T05:11:04;3.93;;;2.70;;
11646;SDS011;5880;52.342;9.662;2023-04-03T05:13:30;2.87;;;2.33;;
11646;SDS011;5880;52.342;9.662;2023-04-03T05:15:55;5.47;;;2.67;;
11646;SDS011;5880;52.342;9.662;2023-04-03T05:18:21;2.50;;;2.30;;
11646;SDS011;5880;52.342;9.662;2023-04-03T05:20:50;3.87;;;2.60;;
11646;SDS011;5880;52.342;9.662;2023-04-03T05:23:15;4.20;;;2.57;;
11646;SDS011;5880;52.342;9.662;2023-04-03T05:25:41;3.93;;;2.63;;
11646;SDS011;5880;52.342;9.662;2023-04-03T05:28:10;3.73;;;2.40;;
11646;SDS011;5880;52.342;9.662;2023-04-03T05:30:36;3.20;;;2.10;;
11646;SDS011;5880;52.342;9.662;2023-04-03T05:33:01;2.20;;;1.70;;
11646;SDS011;5880;52.342;9.662;2023-04-03T05:35:27;3.43;;;1.83;;
11646;SDS011;5880;52.342;9.662;2023-04-03T05:37:53;3.53;;;1.80;;
11646;SDS011;5880;52.342;9.662;2023-04-03T05:40:18;3.97;;;1.70;;
11646;SDS011;5880;52.342;9.662;2023-04-03T05:42:44;4.23;;;1.50;;
11646;SDS011;5880;52.342;9.662;2023-04-03T05:45:10;5.07;;;1.53;;
11646;SDS011;5880;52.342;9.662;2023-04-03T05:47:36;4.07;;;1.47;;
11646;SDS011;5880;52.342;9.662;2023-04-03T05:50:02;3.47;;;1.50;;
11646;SDS011;5880;52.342;9.662;2023-04-03T05:52:33;5.93;;;1.50;;
11646;SDS011;5880;52.342;9.662;2023-04-03T05:55:02;3.17;;;1.60;;
11646;SDS011;5880;52.342;9.662;2023-04-03T05:57:29;3.70;;;1.57;;
11646;SDS011;5880;52.342;9.662;2023-04-03T05:59:54;4.53;;;1.53;;
11646;SDS011;5880;52.342;9.662;2023-04-03T06:02:21;3.20;;;1.50;;
11646;SDS011;5880;52.342;9.662;2023-04-03T06:04:49;2.63;;;1.50;;
11646;SDS011;5880;52.342;9.662;2023-04-03T06:07:16;4.43;;;1.47;;
11646;SDS011;5880;52.342;9.662;2023-04-03T06:09:48;4.63;;;1.67;;
11646;SDS011;5880;52.342;9.662;2023-04-03T06:12:16;5.23;;;1.90;;
11646;SDS011;5880;52.342;9.662;2023-04-03T06:14:42;3.93;;;1.60;;
11646;SDS011;5880;52.342;9.662;2023-04-03T06:17:09;4.10;;;1.70;;
11646;SDS011;5880;52.342;9.662;2023-04-03T06:19:37;3.87;;;1.83;;
11646;SDS011;5880;52.342;9.662;2023-04-03T06:22:02;3.47;;;1.60;;
11646;SDS011;5880;52.342;9.662;2023-04-03T06:24:29;3.07;;;1.60;;
11646;SDS011;5880;52.342;9.662;2023-04-03T06:26:55;3.00;;;1.53;;
11646;SDS011;5880;52.342;9.662;2023-04-03T06:29:22;2.83;;;1.70;;
11646;SDS011;5880;52.342;9.662;2023-04-03T06:31:48;4.10;;;1.77;;
11646;SDS011;5880;52.342;9.662;2023-04-03T06:34:15;3.53;;;1.57;;
11646;SDS011;5880;52.342;9.662;2023-04-03T06:36:41;4.40;;;2.40;;
11646;SDS011;5880;52.342;9.662;2023-04-03T06:39:08;4.35;;;2.33;;
11646;SDS011;5880;52.342;9.662;2023-04-03T06:41:39;2.90;;;2.35;;
11646;SDS011;5880;52.342;9.662;2023-04-03T06:44:05;5.10;;;2.80;;
11646;SDS011;5880;52.342;9.662;2023-04-03T06:46:31;3.83;;;2.53;;
11646;SDS011;5880;52.342;9.662;2023-04-03T06:48:56;4.05;;;2.35;;
11646;SDS011;5880;52.342;9.662;2023-04-03T06:51:26;3.42;;;2.13;;
11646;SDS011;5880;52.342;9.662;2023-04-03T06:53:55;3.40;;;1.60;;
11646;SDS011;5880;52.342;9.662;2023-04-03T06:56:23;3.60;;;1.60;;
11646;SDS011;5880;52.342;9.662;2023-04-03T06:58:51;3.47;;;1.50;;
11646;SDS011;5880;52.342;9.662;2023-04-03T07:01:19;2.67;;;1.42;;
11646;SDS011;5880;52.342;9.662;2023-04-03T07:03:46;2.88;;;1.40;;
11646;SDS011;5880;52.342;9.662;2023-04-03T07:06:13;2.75;;;1.25;;
11646;SDS011;5880;52.342;9.662;2023-04-03T07:08:41;2.85;;;1.30;;
11646;SDS011;5880;52.342;9.662;2023-04-03T07:11:07;2.45;;;1.20;;
11646;SDS011;5880;52.342;9.662;2023-04-03T07:13:35;2.75;;;1.33;;
11646;SDS011;5880;52.342;9.662;2023-04-03T07:16:01;3.45;;;1.25;;
11646;SDS011;5880;52.342;9.662;2023-04-03T07:18:29;2.47;;;1.40;;
11646;SDS011;5880;52.342;9.662;2023-04-03T07:20:56;2.53;;;1.33;;
11646;SDS011;5880;52.342;9.662;2023-04-03T07:23:22;3.53;;;1.50;;
11646;SDS011;5880;52.342;9.662;2023-04-03T07:25:49;2.13;;;1.42;;
11646;SDS011;5880;52.342;9.662;2023-04-03T07:28:17;1.85;;;1.30;;
11646;SDS011;5880;52.342;9.662;2023-04-03T07:30:45;2.85;;;1.25;;
11646;SDS011;5880;52.342;9.662;2023-04-03T07:33:18;2.10;;;1.20;;
11646;SDS011;5880;52.342;9.662;2023-04-03T07:35:46;3.35;;;1.40;;
11646;SDS011;5880;52.342;9.662;2023-04-03T07:38:12;3.97;;;1.77;;
11646;SDS011;5880;52.342;9.662;2023-04-03T07:40:38;1.85;;;1.30;;
11646;SDS011;5880;52.342;9.662;2023-04-03T07:43:05;3.75;;;1.30;;
11646;SDS011;5880;52.342;9.662;2023-04-03T07:45:31;2.63;;;1.60;;
11646;SDS011;5880;52.342;9.662;2023-04-03T07:47:59;2.63;;;0.98;;
11646;SDS011;5880;52.342;9.662;2023-04-03T07:50:25;3.40;;;1.35;;
11646;SDS011;5880;52.342;9.662;2023-04-03T07:52:52;2.80;;;1.38;;
11646;SDS011;5880;52.342;9.662;2023-04-03T07:55:19;2.65;;;1.15;;
11646;SDS011;5880;52.342;9.662;2023-04-03T07:57:45;2.83;;;1.30;;
11646;SDS011;5880;52.342;9.662;2023-04-03T08:00:11;2.05;;;1.00;;
11646;SDS011;5880;52.342;9.662;2023-04-03T08:02:38;2.53;;;1.20;;
11646;SDS011;5880;52.342;9.662;2023-04-03T08:05:04;2.80;;;1.25;;
11646;SDS011;5880;52.342;9.662;2023-04-03T08:07:30;3.25;;;1.52;;
11646;SDS011;5880;52.342;9.662;2023-04-03T08:09:56;2.13;;;1.20;;
11646;SDS011;5880;52.342;9.662;2023-04-03T08:12:22;3.17;;;1.48;;
11646;SDS011;5880;52.342;9.662;2023-04-03T08:14:47;3.72;;;2.03;;
11646;SDS011;5880;52.342;9.662;2023-04-03T08:17:13;3.60;;;1.50;;
11646;SDS011;5880;52.342;9.662;2023-04-03T08:19:39;2.58;;;1.58;;
11646;SDS011;5880;52.342;9.662;2023-04-03T08:22:05;3.45;;;2.13;;
11646;SDS011;5880;52.342;9.662;2023-04-03T08:24:31;2.65;;;1.67;;
11646;SDS011;5880;52.342;9.662;2023-04-03T08:27:00;4.93;;;2.55;;
11646;SDS011;5880;52.342;9.662;2023-04-03T08:29:26;3.50;;;1.90;;
11646;SDS011;5880;52.342;9.662;2023-04-03T08:31:52;3.55;;;2.00;;
11646;SDS011;5880;52.342;9.662;2023-04-03T08:34:18;2.80;;;1.50;;
11646;SDS011;5880;52.342;9.662;2023-04-03T08:36:44;3.50;;;1.30;;
11646;SDS011;5880;52.342;9.662;2023-04-03T08:39:11;2.83;;;1.20;;
11646;SDS011;5880;52.342;9.662;2023-04-03T08:41:38;3.23;;;1.70;;
11646;SDS011;5880;52.342;9.662;2023-04-03T08:44:20;2.60;;;1.40;;
11646;SDS011;5880;52.342;9.662;2023-04-03T08:47:24;3.97;;;1.70;;
11646;SDS011;5880;52.342;9.662;2023-04-03T08:50:07;3.00;;;1.50;;
11646;SDS011;5880;52.342;9.662;2023-04-03T08:52:56;3.33;;;1.60;;
11646;SDS011;5880;52.342;9.662;2023-04-03T08:55:25;1.60;;;1.10;;
11646;SDS011;5880;52.342;9.662;2023-04-03T08:58:00;2.43;;;1.23;;
11646;SDS011;5880;52.342;9.662;2023-04-03T09:00:48;2.33;;;1.27;;
11646;SDS011;5880;52.342;9.662;2023-04-03T09:03:21;1.83;;;1.00;;
11646;SDS011;5880;52.342;9.662;2023-04-03T09:05:55;2.33;;;1.20;;
11646;SDS011;5880;52.342;9.662;2023-04-03T09:08:28;1.87;;;1.07;;
11646;SDS011;5880;52.342;9.662;2023-04-03T09:14:12;4.80;;;1.30;;
11646;SDS011;5880;52.342;9.662;2023-04-03T09:17:14;2.17;;;0.90;;
11646;SDS011;5880;52.342;9.662;2023-04-03T09:22:27;4.35;;;1.48;;
11646;SDS011;5880;52.342;9.662;2023-04-03T09:25:02;4.68;;;1.42;;
11646;SDS011;5880;52.342;9.662;2023-04-03T09:27:38;2.50;;;0.90;;
11646;SDS011;5880;52.342;9.662;2023-04-03T09:30:05;2.00;;;1.37;;
11646;SDS011;5880;52.342;9.662;2023-04-03T09:32:37;2.40;;;1.20;;
11646;SDS011;5880;52.342;9.662;2023-04-03T09:35:25;2.67;;;1.33;;
11646;SDS011;5880;52.342;9.662;2023-04-03T09:37:59;2.27;;;0.97;;
11646;SDS011;5880;52.342;9.662;2023-04-03T09:40:39;1.67;;;1.00;;
11646;SDS011;5880;52.342;9.662;2023-04-03T09:45:50;2.40;;;1.10;;
11646;SDS011;5880;52.342;9.662;2023-04-03T09:48:25;2.17;;;1.17;;
11646;SDS011;5880;52.342;9.662;2023-04-03T09:50:54;2.53;;;1.03;;
11646;SDS011;5880;52.342;9.662;2023-04-03T09:53:41;1.30;;;0.90;;
11646;SDS011;5880;52.342;9.662;2023-04-03T09:58:40;1.23;;;0.90;;
11646;SDS011;5880;52.342;9.662;2023-04-03T10:01:27;1.83;;;1.00;;
11646;SDS011;5880;52.342;9.662;2023-04-03T10:04:28;1.37;;;0.87;;
11646;SDS011;5880;52.342;9.662;2023-04-03T10:12:09;2.67;;;1.10;;
11646;SDS011;5880;52.342;9.662;2023-04-03T10:14:38;2.13;;;1.10;;
11646;SDS011;5880;52.342;9.662;2023-04-03T10:19:58;2.47;;;1.03;;
11646;SDS011;5880;52.342;9.662;2023-04-03T10:22:56;2.23;;;1.30;;
11646;SDS011;5880;52.342;9.662;2023-04-03T10:25:32;2.37;;;1.20;;
11646;SDS011;5880;52.342;9.662;2023-04-03T10:28:13;3.63;;;1.13;;
11646;SDS011;5880;52.342;9.662;2023-04-03T10:30:50;3.63;;;1.10;;
11646;SDS011;5880;52.342;9.662;2023-04-03T10:39:41;1.63;;;1.13;;
11646;SDS011;5880;52.342;9.662;2023-04-03T10:51:47;2.87;;;1.10;;
11646;SDS011;5880;52.342;9.662;2023-04-03T10:54:34;1.73;;;1.00;;
11646;SDS011;5880;52.342;9.662;2023-04-03T10:57:08;1.50;;;0.93;;
11646;SDS011;5880;52.342;9.662;2023-04-03T10:59:37;2.13;;;0.90;;
11646;SDS011;5880;52.342;9.662;2023-04-03T11:05:06;1.80;;;1.00;;
11646;SDS011;5880;52.342;9.662;2023-04-03T11:08:30;1.53;;;0.90;;
11646;SDS011;5880;52.342;9.662;2023-04-03T11:16:35;2.23;;;1.10;;
11646;SDS011;5880;52.342;9.662;2023-04-03T11:19:16;2.10;;;1.40;;
11646;SDS011;5880;52.342;9.662;2023-04-03T11:22:00;1.57;;;1.00;;
11646;SDS011;5880;52.342;9.662;2023-04-03T11:25:13;3.07;;;0.80;;
11646;SDS011;5880;52.342;9.662;2023-04-03T11:27:41;1.23;;;0.80;;
11646;SDS011;5880;52.342;9.662;2023-04-03T11:30:39;2.30;;;1.10;;
11646;SDS011;5880;52.342;9.662;2023-04-03T11:36:05;1.53;;;0.93;;
11646;SDS011;5880;52.342;9.662;2023-04-03T11:38:43;2.50;;;1.60;;
11646;SDS011;5880;52.342;9.662;2023-04-03T11:41:16;2.00;;;1.17;;
11646;SDS011;5880;52.342;9.662;2023-04-03T11:43:59;1.37;;;0.80;;
11646;SDS011;5880;52.342;9.662;2023-04-03T12:16:24;1.80;;;1.03;;
11646;SDS011;5880;52.342;9.662;2023-04-03T12:19:47;1.80;;;1.20;;
11646;SDS011;5880;52.342;9.662;2023-04-03T12:22:16;2.90;;;1.53;;
11646;SDS011;5880;52.342;9.662;2023-04-03T12:24:46;1.13;;;1.03;;
11646;SDS011;5880;52.342;9.662;2023-04-03T12:27:20;2.90;;;1.30;;
11646;SDS011;5880;52.342;9.662;2023-04-03T12:30:25;1.23;;;0.90;;
11646;SDS011;5880;52.342;9.662;2023-04-03T12:32:57;2.10;;;1.20;;
11646;SDS011;5880;52.342;9.662;2023-04-03T12:35:37;2.80;;;1.40;;
11646;SDS011;5880;52.342;9.662;2023-04-03T12:44:09;1.47;;;1.10;;
11646;SDS011;5880;52.342;9.662;2023-04-03T12:47:16;1.40;;;0.97;;
11646;SDS011;5880;52.342;9.662;2023-04-03T12:49:53;2.07;;;1.17;;
11646;SDS011;5880;52.342;9.662;2023-04-03T12:52:41;2.20;;;1.33;;
11646;SDS011;5880;52.342;9.662;2023-04-03T12:55:14;1.87;;;1.20;;
11646;SDS011;5880;52.342;9.662;2023-04-03T12:57:42;1.83;;;1.17;;
11646;SDS011;5880;52.342;9.662;2023-04-03T13:03:05;1.80;;;1.17;;
11646;SDS011;5880;52.342;9.662;2023-04-03T13:05:44;1.67;;;1.23;;
11646;SDS011;5880;52.342;9.662;2023-04-03T13:08:12;2.63;;;1.20;;
11646;SDS011;5880;52.342;9.662;2023-04-03T13:13:20;2.43;;;1.40;;
11646;SDS011;5880;52.342;9.662;2023-04-03T13:15:48;2.53;;;1.00;;
11646;SDS011;5880;52.342;9.662;2023-04-03T13:18:25;2.00;;;1.40;;
11646;SDS011;5880;52.342;9.662;2023-04-03T13:21:05;1.80;;;1.20;;
11646;SDS011;5880;52.342;9.662;2023-04-03T13:23:45;1.97;;;1.10;;
11646;SDS011;5880;52.342;9.662;2023-04-03T13:26:16;2.57;;;0.90;;
11646;SDS011;5880;52.342;9.662;2023-04-03T13:28:45;1.53;;;1.03;;
11646;SDS011;5880;52.342;9.662;2023-04-03T13:33:39;1.87;;;1.10;;
11646;SDS011;5880;52.342;9.662;2023-04-03T13:36:32;2.03;;;0.90;;
11646;SDS011;5880;52.342;9.662;2023-04-03T13:39:22;3.17;;;0.90;;
11646;SDS011;5880;52.342;9.662;2023-04-03T13:42:02;2.37;;;1.10;;
11646;SDS011;5880;52.342;9.662;2023-04-03T13:47:55;1.17;;;1.00;;
11646;SDS011;5880;52.342;9.662;2023-04-03T13:50:54;1.83;;;1.13;;
11646;SDS011;5880;52.342;9.662;2023-04-03T13:53:27;2.53;;;1.17;;
11646;SDS011;5880;52.342;9.662;2023-04-03T13:58:32;1.40;;;1.10;;
11646;SDS011;5880;52.342;9.662;2023-04-03T14:03:43;2.30;;;0.90;;
11646;SDS011;5880;52.342;9.662;2023-04-03T14:06:20;1.10;;;1.00;;
11646;SDS011;5880;52.342;9.662;2023-04-03T14:08:46;2.10;;;0.90;;
11646;SDS011;5880;52.342;9.662;2023-04-03T14:11:15;1.40;;;1.00;;
11646;SDS011;5880;52.342;9.662;2023-04-03T14:13:45;1.33;;;1.00;;
11646;SDS011;5880;52.342;9.662;2023-04-03T14:16:18;2.03;;;0.93;;
11646;SDS011;5880;52.342;9.662;2023-04-03T14:18:48;3.03;;;1.10;;
11646;SDS011;5880;52.342;9.662;2023-04-03T14:21:16;3.00;;;1.27;;
11646;SDS011;5880;52.342;9.662;2023-04-03T14:23:44;1.67;;;1.27;;
11646;SDS011;5880;52.342;9.662;2023-04-03T14:26:15;2.40;;;1.10;;
11646;SDS011;5880;52.342;9.662;2023-04-03T14:28:46;1.23;;;1.00;;
11646;SDS011;5880;52.342;9.662;2023-04-03T14:31:16;1.87;;;0.90;;
11646;SDS011;5880;52.342;9.662;2023-04-03T14:33:43;1.37;;;0.87;;
11646;SDS011;5880;52.342;9.662;2023-04-03T14:36:31;2.87;;;1.30;;
11646;SDS011;5880;52.342;9.662;2023-04-03T14:38:59;2.37;;;1.20;;
11646;SDS011;5880;52.342;9.662;2023-04-03T14:41:27;1.87;;;0.90;;
11646;SDS011;5880;52.342;9.662;2023-04-03T14:43:53;3.03;;;1.07;;
11646;SDS011;5880;52.342;9.662;2023-04-03T14:46:29;2.20;;;1.40;;
11646;SDS011;5880;52.342;9.662;2023-04-03T14:51:59;1.23;;;0.73;;
11646;SDS011;5880;52.342;9.662;2023-04-03T14:54:25;1.30;;;0.90;;
11646;SDS011;5880;52.342;9.662;2023-04-03T14:56:53;1.33;;;0.80;;
11646;SDS011;5880;52.342;9.662;2023-04-03T14:59:20;2.73;;;1.17;;
11646;SDS011;5880;52.342;9.662;2023-04-03T15:01:47;1.53;;;1.27;;
11646;SDS011;5880;52.342;9.662;2023-04-03T15:04:18;1.20;;;1.00;;
11646;SDS011;5880;52.342;9.662;2023-04-03T15:06:46;2.57;;;1.20;;
11646;SDS011;5880;52.342;9.662;2023-04-03T15:09:20;1.67;;;1.27;;
11646;SDS011;5880;52.342;9.662;2023-04-03T15:11:52;1.80;;;1.10;;
11646;SDS011;5880;52.342;9.662;2023-04-03T15:14:19;1.70;;;1.00;;
11646;SDS011;5880;52.342;9.662;2023-04-03T15:16:46;2.20;;;1.40;;
11646;SDS011;5880;52.342;9.662;2023-04-03T15:19:13;2.43;;;1.37;;
11646;SDS011;5880;52.342;9.662;2023-04-03T15:21:38;3.83;;;1.70;;
11646;SDS011;5880;52.342;9.662;2023-04-03T15:24:05;2.20;;;1.10;;
11646;SDS011;5880;52.342;9.662;2023-04-03T15:26:31;1.13;;;0.93;;
11646;SDS011;5880;52.342;9.662;2023-04-03T15:28:57;4.87;;;1.40;;
11646;SDS011;5880;52.342;9.662;2023-04-03T15:31:23;1.60;;;1.10;;
11646;SDS011;5880;52.342;9.662;2023-04-03T15:33:49;1.80;;;1.27;;
11646;SDS011;5880;52.342;9.662;2023-04-03T15:36:14;1.77;;;1.00;;
11646;SDS011;5880;52.342;9.662;2023-04-03T15:38:40;1.47;;;1.00;;
11646;SDS011;5880;52.342;9.662;2023-04-03T15:41:06;1.97;;;1.10;;
11646;SDS011;5880;52.342;9.662;2023-04-03T15:43:32;1.40;;;1.00;;
11646;SDS011;5880;52.342;9.662;2023-04-03T15:45:59;3.00;;;0.90;;
11646;SDS011;5880;52.342;9.662;2023-04-03T15:48:25;2.97;;;1.50;;
11646;SDS011;5880;52.342;9.662;2023-04-03T15:50:52;2.03;;;1.10;;
11646;SDS011;5880;52.342;9.662;2023-04-03T15:53:18;1.33;;;1.10;;
11646;SDS011;5880;52.342;9.662;2023-04-03T15:55:44;6.20;;;2.60;;
11646;SDS011;5880;52.342;9.662;2023-04-03T15:58:10;3.90;;;2.00;;
11646;SDS011;5880;52.342;9.662;2023-04-03T16:00:35;2.90;;;1.77;;
11646;SDS011;5880;52.342;9.662;2023-04-03T16:03:09;3.63;;;1.50;;
11646;SDS011;5880;52.342;9.662;2023-04-03T16:05:44;1.40;;;1.10;;
11646;SDS011;5880;52.342;9.662;2023-04-03T16:08:10;1.93;;;1.10;;
11646;SDS011;5880;52.342;9.662;2023-04-03T16:10:37;2.20;;;1.40;;
11646;SDS011;5880;52.342;9.662;2023-04-03T16:13:04;2.20;;;1.53;;
11646;SDS011;5880;52.342;9.662;2023-04-03T16:15:31;1.83;;;1.33;;
11646;SDS011;5880;52.342;9.662;2023-04-03T16:17:59;1.53;;;1.17;;
11646;SDS011;5880;52.342;9.662;2023-04-03T16:20:27;1.73;;;1.20;;
11646;SDS011;5880;52.342;9.662;2023-04-03T16:22:53;2.67;;;1.30;;
11646;SDS011;5880;52.342;9.662;2023-04-03T16:25:22;2.27;;;1.03;;
11646;SDS011;5880;52.342;9.662;2023-04-03T16:27:48;1.20;;;1.00;;
11646;SDS011;5880;52.342;9.662;2023-04-03T16:30:14;2.53;;;1.10;;
11646;SDS011;5880;52.342;9.662;2023-04-03T16:32:40;1.80;;;1.10;;
11646;SDS011;5880;52.342;9.662;2023-04-03T16:35:06;1.60;;;1.20;;
11646;SDS011;5880;52.342;9.662;2023-04-03T16:37:32;3.33;;;1.20;;
11646;SDS011;5880;52.342;9.662;2023-04-03T16:39:58;3.07;;;1.30;;
11646;SDS011;5880;52.342;9.662;2023-04-03T16:42:24;1.77;;;1.00;;
11646;SDS011;5880;52.342;9.662;2023-04-03T16:44:50;1.90;;;1.30;;
11646;SDS011;5880;52.342;9.662;2023-04-03T16:47:16;1.83;;;1.10;;
11646;SDS011;5880;52.342;9.662;2023-04-03T16:49:44;2.77;;;1.10;;
11646;SDS011;5880;52.342;9.662;2023-04-03T16:52:10;2.50;;;1.20;;
11646;SDS011;5880;52.342;9.662;2023-04-03T16:54:36;2.43;;;1.30;;
11646;SDS011;5880;52.342;9.662;2023-04-03T16:57:01;2.73;;;1.20;;
11646;SDS011;5880;52.342;9.662;2023-04-03T16:59:27;2.07;;;1.23;;
11646;SDS011;5880;52.342;9.662;2023-04-03T17:01:53;4.13;;;1.50;;
11646;SDS011;5880;52.342;9.662;2023-04-03T17:04:18;2.03;;;1.23;;
11646;SDS011;5880;52.342;9.662;2023-04-03T17:06:44;2.10;;;1.03;;
11646;SDS011;5880;52.342;9.662;2023-04-03T17:09:10;2.67;;;1.30;;
11646;SDS011;5880;52.342;9.662;2023-04-03T17:11:36;1.87;;;1.10;;